sensor_id;sensor_type;location;lat;lon;timestamp;P1;durP1;ratioP1;P2;durP2;ratioP2
22871;SDS011;11603;44.910;8.630;2023-05-07T00:02:16;2.35;;;1.90;;
22871;SDS011;11603;44.910;8.630;2023-05-07T00:04:43;4.18;;;2.17;;
22871;SDS011;11603;44.910;8.630;2023-05-07T00:07:10;3.00;;;1.90;;
22871;SDS011;11603;44.910;8.630;2023-05-07T00:09:35;4.55;;;1.88;;
22871;SDS011;11603;44.910;8.630;2023-05-07T00:12:01;4.80;;;2.00;;
22871;SDS011;11603;44.910;8.630;2023-05-07T00:14:27;2.83;;;1.92;;
22871;SDS011;11603;44.910;8.630;2023-05-07T00:16:53;3.50;;;2.20;;
22871;SDS011;11603;44.910;8.630;2023-05-07T00:19:20;2.88;;;2.08;;
22871;SDS011;11603;44.910;8.630;2023-05-07T00:21:48;3.75;;;2.22;;
22871;SDS011;11603;44.910;8.630;2023-05-07T00:24:14;4.70;;;2.13;;
22871;SDS011;11603;44.910;8.630;2023-05-07T00:41:57;3.42;;;2.25;;
22871;SDS011;11603;44.910;8.630;2023-05-07T00:44:24;3.97;;;2.15;;
22871;SDS011;11603;44.910;8.630;2023-05-07T00:46:51;3.20;;;2.47;;
22871;SDS011;11603;44.910;8.630;2023-05-07T00:49:18;3.15;;;2.08;;
22871;SDS011;11603;44.910;8.630;2023-05-07T00:51:45;5.43;;;2.40;;
22871;SDS011;11603;44.910;8.630;2023-05-07T00:54:13;3.33;;;2.55;;
22871;SDS011;11603;44.910;8.630;2023-05-07T00:56:39;4.28;;;2.60;;
22871;SDS011;11603;44.910;8.630;2023-05-07T00:59:05;3.63;;;2.50;;
22871;SDS011;11603;44.910;8.630;2023-05-07T01:01:31;4.90;;;3.17;;
22871;SDS011;11603;44.910;8.630;2023-05-07T01:03:57;3.45;;;3.08;;
22871;SDS011;11603;44.910;8.630;2023-05-07T01:06:23;8.20;;;3.03;;
22871;SDS011;11603;44.910;8.630;2023-05-07T01:08:50;4.50;;;3.00;;
22871;SDS011;11603;44.910;8.630;2023-05-07T01:11:18;4.32;;;3.30;;
22871;SDS011;11603;44.910;8.630;2023-05-07T01:13:45;4.00;;;3.17;;
22871;SDS011;11603;44.910;8.630;2023-05-07T01:16:12;4.65;;;2.60;;
22871;SDS011;11603;44.910;8.630;2023-05-07T01:18:42;3.97;;;2.60;;
22871;SDS011;11603;44.910;8.630;2023-05-07T01:21:13;2.85;;;2.45;;
22871;SDS011;11603;44.910;8.630;2023-05-07T01:23:41;3.33;;;2.47;;
22871;SDS011;11603;44.910;8.630;2023-05-07T01:26:07;4.93;;;2.80;;
22871;SDS011;11603;44.910;8.630;2023-05-07T01:28:33;3.22;;;2.50;;
22871;SDS011;11603;44.910;8.630;2023-05-07T01:31:00;2.83;;;2.38;;
22871;SDS011;11603;44.910;8.630;2023-05-07T01:33:34;2.63;;;2.42;;
22871;SDS011;11603;44.910;8.630;2023-05-07T01:36:04;9.27;;;2.58;;
22871;SDS011;11603;44.910;8.630;2023-05-07T01:38:32;3.80;;;2.60;;
22871;SDS011;11603;44.910;8.630;2023-05-07T01:40:58;2.75;;;2.20;;
22871;SDS011;11603;44.910;8.630;2023-05-07T01:43:24;2.83;;;2.55;;
22871;SDS011;11603;44.910;8.630;2023-05-07T01:45:53;2.95;;;2.60;;
22871;SDS011;11603;44.910;8.630;2023-05-07T01:48:19;2.92;;;2.53;;
22871;SDS011;11603;44.910;8.630;2023-05-07T01:50:45;4.93;;;2.63;;
22871;SDS011;11603;44.910;8.630;2023-05-07T01:53:12;3.33;;;2.45;;
22871;SDS011;11603;44.910;8.630;2023-05-07T01:55:37;2.97;;;2.30;;
22871;SDS011;11603;44.910;8.630;2023-05-07T01:58:03;4.40;;;2.38;;
22871;SDS011;11603;44.910;8.630;2023-05-07T02:00:31;6.05;;;2.38;;
22871;SDS011;11603;44.910;8.630;2023-05-07T02:02:57;5.45;;;2.40;;
22871;SDS011;11603;44.910;8.630;2023-05-07T02:05:32;2.80;;;2.50;;
22871;SDS011;11603;44.910;8.630;2023-05-07T02:08:05;3.00;;;2.40;;
22871;SDS011;11603;44.910;8.630;2023-05-07T02:10:31;2.63;;;2.20;;
22871;SDS011;11603;44.910;8.630;2023-05-07T02:12:57;3.67;;;2.38;;
22871;SDS011;11603;44.910;8.630;2023-05-07T02:15:23;5.13;;;2.10;;
22871;SDS011;11603;44.910;8.630;2023-05-07T02:18:02;4.43;;;3.30;;
22871;SDS011;11603;44.910;8.630;2023-05-07T02:20:31;4.47;;;3.53;;
22871;SDS011;11603;44.910;8.630;2023-05-07T02:22:58;4.70;;;3.40;;
22871;SDS011;11603;44.910;8.630;2023-05-07T02:25:26;5.30;;;3.30;;
22871;SDS011;11603;44.910;8.630;2023-05-07T02:27:55;3.22;;;2.92;;
22871;SDS011;11603;44.910;8.630;2023-05-07T02:30:25;4.47;;;2.78;;
22871;SDS011;11603;44.910;8.630;2023-05-07T02:32:55;2.75;;;2.50;;
22871;SDS011;11603;44.910;8.630;2023-05-07T02:35:20;4.75;;;2.88;;
22871;SDS011;11603;44.910;8.630;2023-05-07T02:37:46;5.43;;;3.00;;
22871;SDS011;11603;44.910;8.630;2023-05-07T02:40:12;5.80;;;3.03;;
22871;SDS011;11603;44.910;8.630;2023-05-07T02:42:38;3.95;;;3.33;;
22871;SDS011;11603;44.910;8.630;2023-05-07T02:45:03;4.00;;;2.92;;
22871;SDS011;11603;44.910;8.630;2023-05-07T02:47:30;4.00;;;3.03;;
22871;SDS011;11603;44.910;8.630;2023-05-07T02:49:57;3.88;;;3.33;;
22871;SDS011;11603;44.910;8.630;2023-05-07T02:52:25;3.67;;;3.35;;
22871;SDS011;11603;44.910;8.630;2023-05-07T02:54:52;5.13;;;3.40;;
22871;SDS011;11603;44.910;8.630;2023-05-07T02:57:17;3.70;;;3.22;;
22871;SDS011;11603;44.910;8.630;2023-05-07T02:59:43;4.85;;;3.20;;
22871;SDS011;11603;44.910;8.630;2023-05-07T03:02:10;4.85;;;3.45;;
22871;SDS011;11603;44.910;8.630;2023-05-07T03:04:36;4.18;;;3.20;;
22871;SDS011;11603;44.910;8.630;2023-05-07T03:07:01;7.03;;;3.42;;
22871;SDS011;11603;44.910;8.630;2023-05-07T03:09:27;4.80;;;3.33;;
22871;SDS011;11603;44.910;8.630;2023-05-07T03:11:53;4.95;;;3.60;;
22871;SDS011;11603;44.910;8.630;2023-05-07T03:14:18;3.53;;;3.22;;
22871;SDS011;11603;44.910;8.630;2023-05-07T03:16:44;4.25;;;3.08;;
22871;SDS011;11603;44.910;8.630;2023-05-07T03:19:09;5.18;;;3.40;;
22871;SDS011;11603;44.910;8.630;2023-05-07T03:21:35;6.80;;;3.08;;
22871;SDS011;11603;44.910;8.630;2023-05-07T03:24:03;4.22;;;2.92;;
22871;SDS011;11603;44.910;8.630;2023-05-07T03:26:29;3.35;;;3.05;;
22871;SDS011;11603;44.910;8.630;2023-05-07T03:28:55;7.93;;;3.72;;
22871;SDS011;11603;44.910;8.630;2023-05-07T03:31:20;3.75;;;3.40;;
22871;SDS011;11603;44.910;8.630;2023-05-07T03:33:55;4.13;;;3.53;;
22871;SDS011;11603;44.910;8.630;2023-05-07T03:36:23;6.38;;;3.58;;
22871;SDS011;11603;44.910;8.630;2023-05-07T03:38:49;7.38;;;3.63;;
22871;SDS011;11603;44.910;8.630;2023-05-07T03:41:18;4.28;;;3.47;;
22871;SDS011;11603;44.910;8.630;2023-05-07T03:43:45;4.57;;;3.38;;
22871;SDS011;11603;44.910;8.630;2023-05-07T03:46:11;4.22;;;3.40;;
22871;SDS011;11603;44.910;8.630;2023-05-07T03:48:37;4.15;;;3.22;;
22871;SDS011;11603;44.910;8.630;2023-05-07T03:51:04;5.85;;;3.20;;
22871;SDS011;11603;44.910;8.630;2023-05-07T04:24:12;4.70;;;4.10;;
22871;SDS011;11603;44.910;8.630;2023-05-07T04:26:37;4.97;;;3.40;;
22871;SDS011;11603;44.910;8.630;2023-05-07T04:29:04;3.42;;;3.13;;
22871;SDS011;11603;44.910;8.630;2023-05-07T04:31:33;3.53;;;3.22;;
22871;SDS011;11603;44.910;8.630;2023-05-07T04:33:59;5.88;;;3.50;;
22871;SDS011;11603;44.910;8.630;2023-05-07T04:36:28;4.90;;;3.22;;
22871;SDS011;11603;44.910;8.630;2023-05-07T04:39:02;4.00;;;3.10;;
22871;SDS011;11603;44.910;8.630;2023-05-07T04:41:30;6.38;;;3.10;;
22871;SDS011;11603;44.910;8.630;2023-05-07T04:43:57;3.67;;;3.08;;
22871;SDS011;11603;44.910;8.630;2023-05-07T04:46:25;7.18;;;3.47;;
22871;SDS011;11603;44.910;8.630;2023-05-07T04:48:56;5.70;;;3.40;;
22871;SDS011;11603;44.910;8.630;2023-05-07T04:51:22;6.20;;;3.35;;
22871;SDS011;11603;44.910;8.630;2023-05-07T04:53:50;4.68;;;3.05;;
22871;SDS011;11603;44.910;8.630;2023-05-07T04:56:15;5.65;;;2.90;;
22871;SDS011;11603;44.910;8.630;2023-05-07T04:58:43;4.20;;;2.90;;
22871;SDS011;11603;44.910;8.630;2023-05-07T05:01:10;3.78;;;2.58;;
22871;SDS011;11603;44.910;8.630;2023-05-07T05:03:41;3.78;;;2.90;;
22871;SDS011;11603;44.910;8.630;2023-05-07T05:46:08;2.63;;;2.42;;
22871;SDS011;11603;44.910;8.630;2023-05-07T05:59:19;4.70;;;2.80;;
22871;SDS011;11603;44.910;8.630;2023-05-07T06:01:47;4.75;;;2.80;;
22871;SDS011;11603;44.910;8.630;2023-05-07T06:04:12;3.60;;;2.95;;
22871;SDS011;11603;44.910;8.630;2023-05-07T06:40:17;3.92;;;2.63;;
22871;SDS011;11603;44.910;8.630;2023-05-07T06:42:47;9.43;;;2.60;;
22871;SDS011;11603;44.910;8.630;2023-05-07T06:45:32;4.72;;;3.08;;
22871;SDS011;11603;44.910;8.630;2023-05-07T06:47:58;5.10;;;3.22;;
22871;SDS011;11603;44.910;8.630;2023-05-07T06:50:24;5.90;;;3.10;;
22871;SDS011;11603;44.910;8.630;2023-05-07T06:52:54;5.50;;;3.20;;
22871;SDS011;11603;44.910;8.630;2023-05-07T06:55:24;5.60;;;3.40;;
22871;SDS011;11603;44.910;8.630;2023-05-07T06:57:51;4.47;;;3.70;;
22871;SDS011;11603;44.910;8.630;2023-05-07T07:00:21;6.32;;;3.63;;
22871;SDS011;11603;44.910;8.630;2023-05-07T07:02:51;3.55;;;3.25;;
22871;SDS011;11603;44.910;8.630;2023-05-07T07:05:20;7.03;;;3.83;;
22871;SDS011;11603;44.910;8.630;2023-05-07T07:07:46;7.65;;;3.28;;
22871;SDS011;11603;44.910;8.630;2023-05-07T07:10:21;3.88;;;3.33;;
22871;SDS011;11603;44.910;8.630;2023-05-07T07:12:48;3.55;;;3.20;;
22871;SDS011;11603;44.910;8.630;2023-05-07T07:15:15;3.58;;;2.90;;
22871;SDS011;11603;44.910;8.630;2023-05-07T07:17:41;10.50;;;3.92;;
22871;SDS011;11603;44.910;8.630;2023-05-07T07:20:07;3.88;;;3.22;;
22871;SDS011;11603;44.910;8.630;2023-05-07T07:22:33;4.35;;;3.10;;
22871;SDS011;11603;44.910;8.630;2023-05-07T07:24:59;7.75;;;3.33;;
22871;SDS011;11603;44.910;8.630;2023-05-07T07:27:31;8.85;;;3.50;;
22871;SDS011;11603;44.910;8.630;2023-05-07T07:29:57;5.00;;;3.40;;
22871;SDS011;11603;44.910;8.630;2023-05-07T07:32:23;6.85;;;3.30;;
22871;SDS011;11603;44.910;8.630;2023-05-07T07:34:50;4.80;;;3.20;;
22871;SDS011;11603;44.910;8.630;2023-05-07T07:37:15;5.22;;;3.63;;
22871;SDS011;11603;44.910;8.630;2023-05-07T07:39:42;4.22;;;3.00;;
22871;SDS011;11603;44.910;8.630;2023-05-07T07:42:08;7.35;;;2.80;;
22871;SDS011;11603;44.910;8.630;2023-05-07T07:44:33;9.00;;;3.10;;
22871;SDS011;11603;44.910;8.630;2023-05-07T07:47:06;8.02;;;3.00;;
22871;SDS011;11603;44.910;8.630;2023-05-07T07:49:32;7.32;;;3.20;;
22871;SDS011;11603;44.910;8.630;2023-05-07T07:52:01;5.78;;;2.80;;
22871;SDS011;11603;44.910;8.630;2023-05-07T07:54:30;3.78;;;2.53;;
22871;SDS011;11603;44.910;8.630;2023-05-07T07:56:56;4.35;;;2.40;;
22871;SDS011;11603;44.910;8.630;2023-05-07T07:59:22;3.97;;;2.50;;
22871;SDS011;11603;44.910;8.630;2023-05-07T08:01:48;3.38;;;2.60;;
22871;SDS011;11603;44.910;8.630;2023-05-07T08:04:19;5.80;;;2.90;;
22871;SDS011;11603;44.910;8.630;2023-05-07T08:22:16;3.40;;;2.80;;
22871;SDS011;11603;44.910;8.630;2023-05-07T08:32:47;3.10;;;2.80;;
22871;SDS011;11603;44.910;8.630;2023-05-07T08:35:12;5.85;;;3.30;;
22871;SDS011;11603;44.910;8.630;2023-05-07T08:37:39;3.83;;;3.25;;
22871;SDS011;11603;44.910;8.630;2023-05-07T08:40:14;5.13;;;3.13;;
22871;SDS011;11603;44.910;8.630;2023-05-07T08:47:43;3.35;;;2.30;;
22871;SDS011;11603;44.910;8.630;2023-05-07T08:50:16;3.97;;;2.60;;
22871;SDS011;11603;44.910;8.630;2023-05-07T08:52:43;6.85;;;2.50;;
22871;SDS011;11603;44.910;8.630;2023-05-07T08:55:09;5.32;;;2.20;;
22871;SDS011;11603;44.910;8.630;2023-05-07T08:57:35;2.97;;;2.08;;
22871;SDS011;11603;44.910;8.630;2023-05-07T09:00:02;5.35;;;2.30;;
22871;SDS011;11603;44.910;8.630;2023-05-07T09:02:36;5.05;;;2.05;;
22871;SDS011;11603;44.910;8.630;2023-05-07T09:05:02;3.58;;;2.45;;
22871;SDS011;11603;44.910;8.630;2023-05-07T09:10:55;4.70;;;1.90;;
22871;SDS011;11603;44.910;8.630;2023-05-07T09:13:22;4.13;;;2.28;;
22871;SDS011;11603;44.910;8.630;2023-05-07T09:15:49;6.20;;;2.10;;
22871;SDS011;11603;44.910;8.630;2023-05-07T09:18:15;3.70;;;1.75;;
22871;SDS011;11603;44.910;8.630;2023-05-07T09:20:41;5.85;;;2.58;;
22871;SDS011;11603;44.910;8.630;2023-05-07T09:23:09;6.35;;;3.97;;
22871;SDS011;11603;44.910;8.630;2023-05-07T09:25:37;8.23;;;3.00;;
22871;SDS011;11603;44.910;8.630;2023-05-07T09:28:15;10.05;;;3.47;;
22871;SDS011;11603;44.910;8.630;2023-05-07T09:30:41;8.60;;;2.60;;
22871;SDS011;11603;44.910;8.630;2023-05-07T09:33:09;5.90;;;2.83;;
22871;SDS011;11603;44.910;8.630;2023-05-07T09:35:38;5.93;;;2.35;;
22871;SDS011;11603;44.910;8.630;2023-05-07T09:42:11;6.18;;;3.55;;
22871;SDS011;11603;44.910;8.630;2023-05-07T10:13:11;8.95;;;4.22;;
22871;SDS011;11603;44.910;8.630;2023-05-07T10:50:21;7.22;;;3.55;;
22871;SDS011;11603;44.910;8.630;2023-05-07T10:53:07;6.07;;;3.90;;
22871;SDS011;11603;44.910;8.630;2023-05-07T11:02:04;6.55;;;4.22;;
22871;SDS011;11603;44.910;8.630;2023-05-07T11:04:49;9.02;;;4.15;;
22871;SDS011;11603;44.910;8.630;2023-05-07T11:07:59;5.72;;;4.13;;
22871;SDS011;11603;44.910;8.630;2023-05-07T11:13:53;6.25;;;3.40;;
22871;SDS011;11603;44.910;8.630;2023-05-07T11:16:35;5.32;;;3.50;;
22871;SDS011;11603;44.910;8.630;2023-05-07T11:19:16;4.18;;;3.40;;
22871;SDS011;11603;44.910;8.630;2023-05-07T11:21:46;4.38;;;3.58;;
22871;SDS011;11603;44.910;8.630;2023-05-07T11:24:25;7.90;;;2.90;;
22871;SDS011;11603;44.910;8.630;2023-05-07T11:26:58;3.50;;;3.20;;
22871;SDS011;11603;44.910;8.630;2023-05-07T11:29:28;5.93;;;3.42;;
22871;SDS011;11603;44.910;8.630;2023-05-07T11:32:02;8.63;;;4.80;;
22871;SDS011;11603;44.910;8.630;2023-05-07T11:34:33;5.53;;;3.45;;
22871;SDS011;11603;44.910;8.630;2023-05-07T11:36:59;5.13;;;3.00;;
22871;SDS011;11603;44.910;8.630;2023-05-07T11:39:47;4.40;;;3.53;;
22871;SDS011;11603;44.910;8.630;2023-05-07T11:44:58;3.08;;;2.78;;
22871;SDS011;11603;44.910;8.630;2023-05-07T11:47:29;4.15;;;3.25;;
22871;SDS011;11603;44.910;8.630;2023-05-07T11:49:56;5.20;;;3.17;;
22871;SDS011;11603;44.910;8.630;2023-05-07T11:52:23;7.32;;;3.33;;
22871;SDS011;11603;44.910;8.630;2023-05-07T11:54:53;3.25;;;2.83;;
22871;SDS011;11603;44.910;8.630;2023-05-07T11:57:21;3.28;;;2.90;;
22871;SDS011;11603;44.910;8.630;2023-05-07T11:59:59;4.60;;;2.63;;
22871;SDS011;11603;44.910;8.630;2023-05-07T12:02:38;4.32;;;3.00;;
22871;SDS011;11603;44.910;8.630;2023-05-07T12:05:07;4.75;;;2.88;;
22871;SDS011;11603;44.910;8.630;2023-05-07T12:07:33;4.20;;;3.00;;
22871;SDS011;11603;44.910;8.630;2023-05-07T12:09:59;3.78;;;3.15;;
22871;SDS011;11603;44.910;8.630;2023-05-07T12:12:30;5.43;;;3.38;;
22871;SDS011;11603;44.910;8.630;2023-05-07T12:14:55;4.25;;;2.88;;
22871;SDS011;11603;44.910;8.630;2023-05-07T12:17:21;6.10;;;3.08;;
22871;SDS011;11603;44.910;8.630;2023-05-07T12:19:46;3.90;;;3.50;;
22871;SDS011;11603;44.910;8.630;2023-05-07T12:22:12;4.70;;;3.85;;
22871;SDS011;11603;44.910;8.630;2023-05-07T12:24:46;5.13;;;3.53;;
22871;SDS011;11603;44.910;8.630;2023-05-07T12:27:13;3.72;;;3.40;;
22871;SDS011;11603;44.910;8.630;2023-05-07T12:29:39;4.00;;;3.50;;
22871;SDS011;11603;44.910;8.630;2023-05-07T12:32:12;7.10;;;3.75;;
22871;SDS011;11603;44.910;8.630;2023-05-07T12:34:43;6.13;;;3.60;;
22871;SDS011;11603;44.910;8.630;2023-05-07T12:37:09;3.83;;;3.30;;
22871;SDS011;11603;44.910;8.630;2023-05-07T12:39:35;4.18;;;3.40;;
22871;SDS011;11603;44.910;8.630;2023-05-07T12:42:01;4.45;;;3.40;;
22871;SDS011;11603;44.910;8.630;2023-05-07T12:44:30;8.43;;;3.28;;
22871;SDS011;11603;44.910;8.630;2023-05-07T12:46:57;5.38;;;4.00;;
22871;SDS011;11603;44.910;8.630;2023-05-07T12:49:43;5.07;;;3.70;;
22871;SDS011;11603;44.910;8.630;2023-05-07T12:53:22;13.43;;;3.83;;
22871;SDS011;11603;44.910;8.630;2023-05-07T12:57:28;7.82;;;3.13;;
22871;SDS011;11603;44.910;8.630;2023-05-07T13:04:40;6.03;;;3.42;;
22871;SDS011;11603;44.910;8.630;2023-05-07T13:08:09;7.28;;;3.80;;
22871;SDS011;11603;44.910;8.630;2023-05-07T15:17:25;7.97;;;1.30;;
22871;SDS011;11603;44.910;8.630;2023-05-07T15:21:10;3.20;;;1.20;;
22871;SDS011;11603;44.910;8.630;2023-05-07T15:32:14;1.73;;;0.93;;
22871;SDS011;11603;44.910;8.630;2023-05-07T15:42:13;1.20;;;1.10;;
22871;SDS011;11603;44.910;8.630;2023-05-07T15:48:17;9.88;;;1.08;;
22871;SDS011;11603;44.910;8.630;2023-05-07T15:50:42;5.10;;;1.40;;
22871;SDS011;11603;44.910;8.630;2023-05-07T15:53:09;1.23;;;1.13;;
22871;SDS011;11603;44.910;8.630;2023-05-07T15:55:34;1.70;;;1.17;;
22871;SDS011;11603;44.910;8.630;2023-05-07T15:58:00;8.50;;;1.35;;
22871;SDS011;11603;44.910;8.630;2023-05-07T16:00:26;2.47;;;1.20;;
22871;SDS011;11603;44.910;8.630;2023-05-07T16:02:54;3.17;;;0.93;;
22871;SDS011;11603;44.910;8.630;2023-05-07T16:05:20;1.88;;;0.80;;
22871;SDS011;11603;44.910;8.630;2023-05-07T16:07:46;2.97;;;0.80;;
22871;SDS011;11603;44.910;8.630;2023-05-07T16:10:11;4.20;;;0.90;;
22871;SDS011;11603;44.910;8.630;2023-05-07T16:12:37;4.85;;;1.00;;
22871;SDS011;11603;44.910;8.630;2023-05-07T16:15:02;5.70;;;1.00;;
22871;SDS011;11603;44.910;8.630;2023-05-07T16:17:29;2.40;;;0.90;;
22871;SDS011;11603;44.910;8.630;2023-05-07T16:19:54;2.00;;;0.85;;
22871;SDS011;11603;44.910;8.630;2023-05-07T16:22:20;1.27;;;0.90;;
22871;SDS011;11603;44.910;8.630;2023-05-07T16:24:46;5.88;;;1.13;;
22871;SDS011;11603;44.910;8.630;2023-05-07T16:27:11;9.05;;;1.30;;
22871;SDS011;11603;44.910;8.630;2023-05-07T16:29:37;2.95;;;1.00;;
22871;SDS011;11603;44.910;8.630;2023-05-07T16:32:02;3.80;;;1.13;;
22871;SDS011;11603;44.910;8.630;2023-05-07T16:34:28;2.75;;;1.00;;
22871;SDS011;11603;44.910;8.630;2023-05-07T16:36:53;2.13;;;1.10;;
22871;SDS011;11603;44.910;8.630;2023-05-07T16:39:19;9.68;;;1.00;;
22871;SDS011;11603;44.910;8.630;2023-05-07T16:41:44;13.32;;;1.15;;
22871;SDS011;11603;44.910;8.630;2023-05-07T16:44:13;2.67;;;0.75;;
22871;SDS011;11603;44.910;8.630;2023-05-07T16:46:38;2.90;;;0.95;;
22871;SDS011;11603;44.910;8.630;2023-05-07T16:49:04;1.63;;;0.77;;
22871;SDS011;11603;44.910;8.630;2023-05-07T16:51:30;1.73;;;0.77;;
22871;SDS011;11603;44.910;8.630;2023-05-07T16:53:58;1.30;;;0.95;;
22871;SDS011;11603;44.910;8.630;2023-05-07T16:56:23;1.52;;;0.85;;
22871;SDS011;11603;44.910;8.630;2023-05-07T16:58:48;2.28;;;1.13;;
22871;SDS011;11603;44.910;8.630;2023-05-07T17:01:14;3.17;;;1.30;;
22871;SDS011;11603;44.910;8.630;2023-05-07T17:03:40;3.95;;;1.10;;
22871;SDS011;11603;44.910;8.630;2023-05-07T17:06:06;1.90;;;0.80;;
22871;SDS011;11603;44.910;8.630;2023-05-07T17:08:37;1.17;;;0.93;;
22871;SDS011;11603;44.910;8.630;2023-05-07T17:11:03;2.38;;;0.70;;
22871;SDS011;11603;44.910;8.630;2023-05-07T17:13:28;3.10;;;1.17;;
22871;SDS011;11603;44.910;8.630;2023-05-07T17:15:54;1.63;;;1.05;;
22871;SDS011;11603;44.910;8.630;2023-05-07T17:18:19;4.10;;;1.35;;
22871;SDS011;11603;44.910;8.630;2023-05-07T17:20:45;5.82;;;1.20;;
22871;SDS011;11603;44.910;8.630;2023-05-07T17:23:10;4.82;;;1.00;;
22871;SDS011;11603;44.910;8.630;2023-05-07T17:25:37;2.20;;;1.00;;
22871;SDS011;11603;44.910;8.630;2023-05-07T17:28:03;2.63;;;1.00;;
22871;SDS011;11603;44.910;8.630;2023-05-07T17:30:28;2.95;;;1.25;;
22871;SDS011;11603;44.910;8.630;2023-05-07T17:32:57;1.88;;;1.00;;
22871;SDS011;11603;44.910;8.630;2023-05-07T17:35:22;2.20;;;1.05;;
22871;SDS011;11603;44.910;8.630;2023-05-07T17:37:48;2.60;;;0.90;;
22871;SDS011;11603;44.910;8.630;2023-05-07T17:40:17;4.13;;;1.20;;
22871;SDS011;11603;44.910;8.630;2023-05-07T17:42:44;2.42;;;1.05;;
22871;SDS011;11603;44.910;8.630;2023-05-07T17:45:10;1.48;;;1.00;;
22871;SDS011;11603;44.910;8.630;2023-05-07T17:47:36;2.42;;;1.02;;
22871;SDS011;11603;44.910;8.630;2023-05-07T17:50:02;1.10;;;1.00;;
22871;SDS011;11603;44.910;8.630;2023-05-07T17:52:34;2.00;;;1.00;;
22871;SDS011;11603;44.910;8.630;2023-05-07T17:54:59;2.40;;;1.30;;
22871;SDS011;11603;44.910;8.630;2023-05-07T17:57:25;2.70;;;1.33;;
22871;SDS011;11603;44.910;8.630;2023-05-07T17:59:51;6.97;;;1.20;;
22871;SDS011;11603;44.910;8.630;2023-05-07T18:02:17;3.13;;;1.23;;
22871;SDS011;11603;44.910;8.630;2023-05-07T18:04:42;3.08;;;1.48;;
22871;SDS011;11603;44.910;8.630;2023-05-07T18:07:08;4.50;;;1.65;;
22871;SDS011;11603;44.910;8.630;2023-05-07T18:09:34;4.95;;;1.15;;
22871;SDS011;11603;44.910;8.630;2023-05-07T18:11:59;1.65;;;1.20;;
22871;SDS011;11603;44.910;8.630;2023-05-07T18:14:25;4.97;;;1.15;;
22871;SDS011;11603;44.910;8.630;2023-05-07T18:16:50;2.38;;;1.27;;
22871;SDS011;11603;44.910;8.630;2023-05-07T18:19:16;2.65;;;1.20;;
22871;SDS011;11603;44.910;8.630;2023-05-07T18:21:41;1.52;;;1.10;;
22871;SDS011;11603;44.910;8.630;2023-05-07T18:24:07;3.22;;;1.20;;
22871;SDS011;11603;44.910;8.630;2023-05-07T18:26:33;1.58;;;1.00;;
22871;SDS011;11603;44.910;8.630;2023-05-07T18:28:58;2.50;;;1.10;;
22871;SDS011;11603;44.910;8.630;2023-05-07T18:31:24;3.70;;;1.10;;
22871;SDS011;11603;44.910;8.630;2023-05-07T18:33:52;2.42;;;1.20;;
22871;SDS011;11603;44.910;8.630;2023-05-07T18:36:20;2.88;;;1.00;;
22871;SDS011;11603;44.910;8.630;2023-05-07T18:38:45;6.45;;;1.48;;
22871;SDS011;11603;44.910;8.630;2023-05-07T18:41:11;1.25;;;1.00;;
22871;SDS011;11603;44.910;8.630;2023-05-07T18:43:37;1.20;;;0.90;;
22871;SDS011;11603;44.910;8.630;2023-05-07T18:46:02;3.10;;;1.23;;
22871;SDS011;11603;44.910;8.630;2023-05-07T18:48:28;1.40;;;1.20;;
22871;SDS011;11603;44.910;8.630;2023-05-07T18:50:53;2.00;;;1.30;;
22871;SDS011;11603;44.910;8.630;2023-05-07T18:53:19;2.53;;;1.20;;
22871;SDS011;11603;44.910;8.630;2023-05-07T18:55:48;2.00;;;1.17;;
22871;SDS011;11603;44.910;8.630;2023-05-07T18:58:17;1.63;;;1.20;;
22871;SDS011;11603;44.910;8.630;2023-05-07T19:00:47;2.45;;;1.35;;
22871;SDS011;11603;44.910;8.630;2023-05-07T19:03:13;3.85;;;1.13;;
22871;SDS011;11603;44.910;8.630;2023-05-07T19:05:43;1.85;;;1.08;;
22871;SDS011;11603;44.910;8.630;2023-05-07T19:08:09;4.63;;;1.20;;
22871;SDS011;11603;44.910;8.630;2023-05-07T19:10:35;1.40;;;1.20;;
22871;SDS011;11603;44.910;8.630;2023-05-07T19:13:00;4.95;;;1.40;;
22871;SDS011;11603;44.910;8.630;2023-05-07T19:15:26;5.38;;;1.35;;
22871;SDS011;11603;44.910;8.630;2023-05-07T19:17:51;1.70;;;1.30;;
22871;SDS011;11603;44.910;8.630;2023-05-07T19:20:18;2.90;;;1.20;;
22871;SDS011;11603;44.910;8.630;2023-05-07T19:22:44;2.95;;;1.40;;
22871;SDS011;11603;44.910;8.630;2023-05-07T19:25:11;8.10;;;1.35;;
22871;SDS011;11603;44.910;8.630;2023-05-07T19:27:37;2.10;;;1.42;;
22871;SDS011;11603;44.910;8.630;2023-05-07T19:30:02;1.98;;;1.30;;
22871;SDS011;11603;44.910;8.630;2023-05-07T19:32:28;1.50;;;1.30;;
22871;SDS011;11603;44.910;8.630;2023-05-07T19:34:55;1.80;;;1.33;;
22871;SDS011;11603;44.910;8.630;2023-05-07T19:37:20;2.78;;;1.27;;
22871;SDS011;11603;44.910;8.630;2023-05-07T19:39:49;1.42;;;1.10;;
22871;SDS011;11603;44.910;8.630;2023-05-07T19:42:16;6.00;;;1.50;;
22871;SDS011;11603;44.910;8.630;2023-05-07T19:44:42;3.65;;;1.23;;
22871;SDS011;11603;44.910;8.630;2023-05-07T19:47:07;1.52;;;1.08;;
22871;SDS011;11603;44.910;8.630;2023-05-07T19:49:33;2.88;;;1.50;;
22871;SDS011;11603;44.910;8.630;2023-05-07T19:51:59;1.23;;;1.13;;
22871;SDS011;11603;44.910;8.630;2023-05-07T19:54:24;4.45;;;1.35;;
22871;SDS011;11603;44.910;8.630;2023-05-07T19:56:50;1.30;;;1.15;;
22871;SDS011;11603;44.910;8.630;2023-05-07T19:59:15;2.00;;;1.20;;
22871;SDS011;11603;44.910;8.630;2023-05-07T20:01:41;1.40;;;1.27;;
22871;SDS011;11603;44.910;8.630;2023-05-07T20:04:07;2.13;;;1.50;;
22871;SDS011;11603;44.910;8.630;2023-05-07T20:06:32;3.00;;;1.35;;
22871;SDS011;11603;44.910;8.630;2023-05-07T20:08:58;1.42;;;1.15;;
22871;SDS011;11603;44.910;8.630;2023-05-07T20:11:24;3.42;;;1.50;;
22871;SDS011;11603;44.910;8.630;2023-05-07T20:13:49;4.40;;;1.60;;
22871;SDS011;11603;44.910;8.630;2023-05-07T20:16:15;1.52;;;1.40;;
22871;SDS011;11603;44.910;8.630;2023-05-07T20:18:40;2.03;;;1.40;;
22871;SDS011;11603;44.910;8.630;2023-05-07T20:21:07;4.60;;;1.55;;
22871;SDS011;11603;44.910;8.630;2023-05-07T20:23:32;1.67;;;1.45;;
22871;SDS011;11603;44.910;8.630;2023-05-07T20:25:58;1.88;;;1.30;;
22871;SDS011;11603;44.910;8.630;2023-05-07T20:28:23;2.00;;;1.30;;
22871;SDS011;11603;44.910;8.630;2023-05-07T20:30:51;2.55;;;1.80;;
22871;SDS011;11603;44.910;8.630;2023-05-07T20:33:16;4.38;;;2.05;;
22871;SDS011;11603;44.910;8.630;2023-05-07T20:35:43;2.90;;;1.50;;
22871;SDS011;11603;44.910;8.630;2023-05-07T20:38:09;2.17;;;1.50;;
22871;SDS011;11603;44.910;8.630;2023-05-07T20:40:35;2.38;;;1.50;;
22871;SDS011;11603;44.910;8.630;2023-05-07T20:43:02;1.50;;;1.40;;
22871;SDS011;11603;44.910;8.630;2023-05-07T20:45:29;3.90;;;1.65;;
22871;SDS011;11603;44.910;8.630;2023-05-07T20:47:55;3.50;;;1.63;;
22871;SDS011;11603;44.910;8.630;2023-05-07T20:50:23;2.25;;;1.70;;
22871;SDS011;11603;44.910;8.630;2023-05-07T20:52:50;2.47;;;1.60;;
22871;SDS011;11603;44.910;8.630;2023-05-07T20:55:15;2.47;;;1.83;;
22871;SDS011;11603;44.910;8.630;2023-05-07T20:57:41;1.90;;;1.48;;
22871;SDS011;11603;44.910;8.630;2023-05-07T21:00:06;1.65;;;1.50;;
22871;SDS011;11603;44.910;8.630;2023-05-07T21:02:33;2.65;;;1.50;;
22871;SDS011;11603;44.910;8.630;2023-05-07T21:05:00;1.48;;;1.30;;
22871;SDS011;11603;44.910;8.630;2023-05-07T21:07:26;4.20;;;1.45;;
22871;SDS011;11603;44.910;8.630;2023-05-07T21:09:52;1.98;;;1.38;;
22871;SDS011;11603;44.910;8.630;2023-05-07T21:12:17;2.53;;;1.70;;
22871;SDS011;11603;44.910;8.630;2023-05-07T21:14:43;2.97;;;1.42;;
22871;SDS011;11603;44.910;8.630;2023-05-07T21:17:09;1.40;;;1.30;;
22871;SDS011;11603;44.910;8.630;2023-05-07T21:19:34;4.47;;;1.23;;
22871;SDS011;11603;44.910;8.630;2023-05-07T21:22:00;1.55;;;1.40;;
22871;SDS011;11603;44.910;8.630;2023-05-07T21:24:25;1.50;;;1.40;;
22871;SDS011;11603;44.910;8.630;2023-05-07T21:26:54;3.50;;;1.65;;
22871;SDS011;11603;44.910;8.630;2023-05-07T21:29:20;1.95;;;1.70;;